createdAt,value
2023-03-02T00:00:38.193Z,34.28
2023-03-02T00:03:04.622Z,30.15
2023-03-02T00:05:31.026Z,30.25
2023-03-02T00:07:57.405Z,32.70
2023-03-02T00:10:23.781Z,33.08
2023-03-02T00:12:50.134Z,34.55
2023-03-02T00:15:16.469Z,34.10
2023-03-02T00:17:42.793Z,32.63
2023-03-02T00:20:09.179Z,32.55
2023-03-02T00:22:35.505Z,31.13
2023-03-02T00:25:01.821Z,32.28
2023-03-02T00:27:28.184Z,29.88
2023-03-02T00:29:54.524Z,32.75
2023-03-02T00:32:20.912Z,32.28
2023-03-02T00:34:47.329Z,34.22
2023-03-02T00:37:13.679Z,32.55
2023-03-02T00:39:40.501Z,31.48
2023-03-02T00:42:06.935Z,31.95
2023-03-02T00:44:33.246Z,32.58
2023-03-02T00:46:59.643Z,33.53
2023-03-02T00:49:26.096Z,33.38
2023-03-02T00:51:52.410Z,31.67
2023-03-02T00:54:18.724Z,31.73
2023-03-02T00:56:45.186Z,32.80
2023-03-02T00:59:11.849Z,35.10
2023-03-02T01:01:38.231Z,33.85
2023-03-02T01:04:04.941Z,34.53
2023-03-02T01:06:32.025Z,33.45
2023-03-02T01:09:00.108Z,33.75
2023-03-02T01:11:26.512Z,35.78
2023-03-02T01:13:52.860Z,34.05
2023-03-02T01:16:19.266Z,32.60
2023-03-02T01:18:45.666Z,35.30
2023-03-02T01:21:11.989Z,34.75
2023-03-02T01:23:38.309Z,33.60
2023-03-02T01:26:04.681Z,34.90
2023-03-02T01:28:32.033Z,35.67
2023-03-02T01:30:58.364Z,34.78
2023-03-02T01:33:24.739Z,36.00
2023-03-02T01:35:51.158Z,34.97
2023-03-02T01:38:17.547Z,33.92
2023-03-02T01:40:43.917Z,34.65
2023-03-02T01:43:10.307Z,33.72
2023-03-02T01:45:36.661Z,33.80
2023-03-02T01:48:03.158Z,34.60
2023-03-02T01:50:29.553Z,35.53
2023-03-02T01:52:58.943Z,36.85
2023-03-02T01:55:25.393Z,34.88
2023-03-02T01:57:51.792Z,35.67
2023-03-02T02:00:18.137Z,36.85
2023-03-02T02:02:45.631Z,37.55
2023-03-02T02:05:11.992Z,35.58
2023-03-02T02:07:38.980Z,38.92
2023-03-02T02:10:05.408Z,41.17
2023-03-02T02:12:31.761Z,37.90
2023-03-02T02:14:58.107Z,39.53
2023-03-02T02:17:24.728Z,36.55
2023-03-02T02:19:51.048Z,38.92
2023-03-02T02:22:17.355Z,36.88
2023-03-02T02:24:43.734Z,39.00
2023-03-02T02:27:10.040Z,38.38
2023-03-02T02:29:36.378Z,39.15
2023-03-02T02:32:02.990Z,38.03
2023-03-02T02:34:29.494Z,40.03
2023-03-02T02:36:55.883Z,36.25
2023-03-02T02:39:22.353Z,41.17
2023-03-02T02:41:48.681Z,37.13
2023-03-02T02:44:15.457Z,38.22
2023-03-02T02:46:41.833Z,41.35
2023-03-02T02:49:08.165Z,38.95
2023-03-02T02:51:34.485Z,41.22
2023-03-02T02:54:00.883Z,42.88
2023-03-02T02:56:31.608Z,40.58
2023-03-02T02:58:58.274Z,39.13
2023-03-02T03:01:24.718Z,42.05
2023-03-02T03:03:51.429Z,39.45
2023-03-02T03:06:17.811Z,40.47
2023-03-02T03:08:44.204Z,37.58
2023-03-02T03:11:14.758Z,34.28
2023-03-02T03:13:41.223Z,36.30
2023-03-02T03:16:07.769Z,33.95
2023-03-02T03:18:34.102Z,32.95
2023-03-02T03:21:00.746Z,33.88
2023-03-02T03:23:27.341Z,35.45
2023-03-02T03:25:54.149Z,33.03
2023-03-02T03:28:20.485Z,29.40
2023-03-02T03:30:47.103Z,29.73
2023-03-02T03:33:13.559Z,30.65
2023-03-02T03:35:39.910Z,26.98
2023-03-02T03:38:06.618Z,29.27
2023-03-02T03:40:33.110Z,29.70
2023-03-02T03:42:59.928Z,29.17
2023-03-02T03:45:26.856Z,27.45
2023-03-02T03:47:53.991Z,27.90
2023-03-02T03:50:20.582Z,26.65
2023-03-02T03:52:47.043Z,27.65
2023-03-02T03:57:49.480Z,25.90
2023-03-02T04:00:16.023Z,22.98
2023-03-02T04:02:46.946Z,26.42
2023-03-02T04:05:14.098Z,23.65
2023-03-02T04:07:40.518Z,27.80
2023-03-02T04:10:07.470Z,24.35
2023-03-02T04:12:35.535Z,25.02
2023-03-02T04:15:01.925Z,24.38
2023-03-02T04:17:28.394Z,23.35
2023-03-02T04:19:54.859Z,24.48
2023-03-02T04:22:21.251Z,23.52
2023-03-02T04:24:47.936Z,22.20
2023-03-02T04:27:14.609Z,23.38
2023-03-02T04:29:41.639Z,26.08
2023-03-02T04:32:08.413Z,22.75
2023-03-02T04:34:36.787Z,23.45
2023-03-02T04:37:03.522Z,23.17
2023-03-02T04:39:29.982Z,39.45
2023-03-02T04:41:56.478Z,44.47
2023-03-02T04:44:22.863Z,38.88
2023-03-02T04:46:49.432Z,33.70
2023-03-02T04:49:16.003Z,39.28
2023-03-02T04:51:42.462Z,38.60
2023-03-02T04:54:08.870Z,32.95
2023-03-02T04:56:35.670Z,37.17
2023-03-02T04:59:02.165Z,36.15
2023-03-02T05:01:28.527Z,35.20
2023-03-02T05:03:54.972Z,34.28
2023-03-02T05:06:21.444Z,35.65
2023-03-02T05:08:47.934Z,32.08
2023-03-02T05:11:14.449Z,39.50
2023-03-02T05:13:40.931Z,46.35
2023-03-02T05:16:07.588Z,41.33
2023-03-02T05:18:34.053Z,41.78
2023-03-02T05:21:00.535Z,37.97
2023-03-02T05:23:27.023Z,37.13
2023-03-02T05:25:53.571Z,38.97
2023-03-02T05:28:19.966Z,43.30
2023-03-02T05:30:46.378Z,40.15
2023-03-02T05:33:12.840Z,40.08
2023-03-02T05:35:39.293Z,38.58
2023-03-02T05:38:05.777Z,91.82
2023-03-02T05:40:32.310Z,57.60
2023-03-02T05:42:58.800Z,55.92
2023-03-02T05:45:25.174Z,66.32
2023-03-02T05:47:51.663Z,56.30
2023-03-02T05:50:18.143Z,62.20
2023-03-02T05:52:44.617Z,54.25
2023-03-02T05:55:11.156Z,53.88
2023-03-02T05:57:37.589Z,53.42
2023-03-02T06:00:04.025Z,52.97
2023-03-02T06:02:38.631Z,53.20
2023-03-02T06:05:05.231Z,48.78
2023-03-02T06:07:31.717Z,49.30
2023-03-02T06:09:58.314Z,45.05
2023-03-02T06:12:24.838Z,46.53
2023-03-02T06:14:51.323Z,58.40
2023-03-02T06:17:17.863Z,49.00
2023-03-02T06:19:44.238Z,48.25
2023-03-02T06:22:10.733Z,49.53
2023-03-02T06:24:37.206Z,46.20
2023-03-02T06:27:03.689Z,57.75
2023-03-02T06:29:30.166Z,45.00
2023-03-02T06:31:56.690Z,44.17
2023-03-02T06:34:23.122Z,47.42
2023-03-02T06:36:49.525Z,42.85
2023-03-02T06:39:16.009Z,41.83
2023-03-02T06:41:42.345Z,39.58
2023-03-02T06:44:08.703Z,40.35
2023-03-02T06:46:35.306Z,42.60
2023-03-02T06:49:01.804Z,43.47
2023-03-02T06:51:28.200Z,42.00
2023-03-02T06:53:54.619Z,32.95
2023-03-02T06:56:20.982Z,36.50
2023-03-02T06:58:47.369Z,35.95
2023-03-02T07:01:13.842Z,38.25
2023-03-02T07:03:40.289Z,37.72
2023-03-02T07:06:06.701Z,39.30
2023-03-02T07:08:33.128Z,39.28
2023-03-02T07:10:59.495Z,43.08
2023-03-02T07:13:25.834Z,46.13
2023-03-02T07:15:52.240Z,42.90
2023-03-02T07:18:18.597Z,52.80
2023-03-02T07:20:44.963Z,39.90
2023-03-02T07:23:11.382Z,41.13
2023-03-02T07:25:37.735Z,39.20
2023-03-02T07:28:04.205Z,45.95
2023-03-02T07:30:30.787Z,45.05
2023-03-02T07:32:57.411Z,40.85
2023-03-02T07:35:23.830Z,39.55
2023-03-02T07:37:50.361Z,38.58
2023-03-02T07:40:16.800Z,53.10
2023-03-02T07:42:43.191Z,67.18
2023-03-02T07:45:09.839Z,66.43
2023-03-02T07:47:36.222Z,61.85
2023-03-02T07:50:02.592Z,56.13
2023-03-02T07:52:29.186Z,53.53
2023-03-02T07:54:55.533Z,56.35
2023-03-02T07:57:21.895Z,52.80
2023-03-02T07:59:48.318Z,49.78
2023-03-02T08:02:14.833Z,55.03
2023-03-02T08:04:41.249Z,47.15
2023-03-02T08:07:07.663Z,47.33
2023-03-02T08:09:34.032Z,46.75
2023-03-02T08:12:00.375Z,46.38
2023-03-02T08:14:26.793Z,62.63
2023-03-02T08:16:53.178Z,74.00
2023-03-02T08:19:19.526Z,76.80
2023-03-02T08:21:45.951Z,86.45
2023-03-02T08:24:12.323Z,69.60
2023-03-02T08:26:38.679Z,64.80
2023-03-02T08:29:05.116Z,59.92
2023-03-02T08:31:31.864Z,63.85
2023-03-02T08:33:58.420Z,61.50
2023-03-02T08:36:24.846Z,59.90
2023-03-02T08:38:51.216Z,72.47
2023-03-02T08:41:17.581Z,78.15
2023-03-02T08:43:44.018Z,66.40
2023-03-02T08:46:10.449Z,62.00
2023-03-02T08:48:36.901Z,70.05
2023-03-02T08:51:03.383Z,55.65
2023-03-02T08:53:29.806Z,63.08
2023-03-02T08:55:56.221Z,57.10
2023-03-02T08:58:22.662Z,61.90
2023-03-02T09:00:49.058Z,53.85
2023-03-02T09:03:15.470Z,65.68
2023-03-02T09:05:41.896Z,62.10
2023-03-02T09:08:08.612Z,58.72
2023-03-02T09:10:34.966Z,54.00
2023-03-02T09:13:01.404Z,53.83
2023-03-02T09:15:27.752Z,57.63
2023-03-02T09:17:54.097Z,60.92
2023-03-02T09:20:20.526Z,59.10
2023-03-02T09:22:46.876Z,52.70
2023-03-02T09:25:13.242Z,47.88
2023-03-02T09:27:39.626Z,54.22
2023-03-02T09:30:05.986Z,48.75
2023-03-02T09:32:32.426Z,48.95
2023-03-02T09:34:59.068Z,54.20
2023-03-02T09:37:25.406Z,66.70
2023-03-02T09:39:51.813Z,54.10
2023-03-02T09:42:18.318Z,52.60
2023-03-02T09:44:44.672Z,55.92
2023-03-02T09:47:11.041Z,48.60
2023-03-02T09:49:37.457Z,50.67
2023-03-02T09:52:03.852Z,51.80
2023-03-02T09:54:30.301Z,48.38
2023-03-02T09:56:56.800Z,71.90
2023-03-02T09:59:23.189Z,63.65
2023-03-02T10:01:49.555Z,59.13
2023-03-02T10:04:16.107Z,61.72
2023-03-02T10:06:42.547Z,59.38
2023-03-02T10:09:08.934Z,64.03
2023-03-02T10:11:35.365Z,60.05
2023-03-02T10:14:01.739Z,59.75
2023-03-02T10:16:28.229Z,57.78
2023-03-02T10:18:55.143Z,56.42
2023-03-02T10:21:21.666Z,53.08
2023-03-02T10:23:48.134Z,57.05
2023-03-02T10:26:14.696Z,67.88
2023-03-02T10:28:41.089Z,72.90
2023-03-02T10:31:07.631Z,65.78
2023-03-02T10:33:34.113Z,59.85
2023-03-02T10:36:00.532Z,58.40
2023-03-02T10:38:26.911Z,59.72
2023-03-02T10:40:53.453Z,55.30
2023-03-02T10:43:19.855Z,59.72
2023-03-02T10:45:46.313Z,59.30
2023-03-02T10:48:12.829Z,59.35
2023-03-02T10:50:39.198Z,56.47
2023-03-02T10:53:05.556Z,57.80
2023-03-02T10:55:31.978Z,68.63
2023-03-02T10:57:58.456Z,59.95
2023-03-02T11:00:24.905Z,60.60
2023-03-02T11:02:51.378Z,58.13
2023-03-02T11:05:17.817Z,60.05
2023-03-02T11:07:44.200Z,84.43
2023-03-02T11:10:10.616Z,88.20
2023-03-02T11:12:36.981Z,82.18
2023-03-02T11:15:03.405Z,75.75
2023-03-02T11:17:29.895Z,67.15
2023-03-02T11:19:56.276Z,72.70
2023-03-02T11:22:22.649Z,68.97
2023-03-02T11:24:49.095Z,64.80
2023-03-02T11:27:15.488Z,67.95
2023-03-02T11:29:41.841Z,63.90
2023-03-02T11:32:08.414Z,156.00
2023-03-02T11:34:34.908Z,96.18
2023-03-02T11:37:01.314Z,89.15
2023-03-02T11:39:27.792Z,86.80
2023-03-02T11:41:54.185Z,87.35
2023-03-02T11:44:20.551Z,75.53
2023-03-02T11:46:47.119Z,75.50
2023-03-02T11:49:13.486Z,69.35
2023-03-02T11:51:47.151Z,59.95
2023-03-02T11:54:16.540Z,60.92
2023-03-02T11:56:42.929Z,60.90
2023-03-02T11:59:09.287Z,59.40
2023-03-02T12:01:36.033Z,62.83
2023-03-02T12:04:02.763Z,54.13
2023-03-02T12:06:29.169Z,43.70
2023-03-02T12:08:55.658Z,43.85
2023-03-02T12:11:22.054Z,49.15
2023-03-02T12:13:48.396Z,48.88
2023-03-02T12:16:14.860Z,29.90
2023-03-02T12:18:41.255Z,26.17
2023-03-02T12:21:07.665Z,21.35
2023-03-02T12:23:34.181Z,24.48
2023-03-02T12:26:00.532Z,23.00
2023-03-02T12:28:27.058Z,25.65
2023-03-02T12:30:53.495Z,18.42
2023-03-02T12:33:19.901Z,22.20
2023-03-02T12:35:46.317Z,19.33
2023-03-02T12:38:12.799Z,17.92
2023-03-02T12:40:39.250Z,19.83
2023-03-02T12:43:05.713Z,17.75
2023-03-02T12:45:32.162Z,19.67
2023-03-02T12:47:58.648Z,18.13
2023-03-02T12:50:25.281Z,17.75
2023-03-02T12:52:51.726Z,16.88
2023-03-02T12:55:18.108Z,16.65
2023-03-02T12:57:44.506Z,18.20
2023-03-02T13:00:10.935Z,16.95
2023-03-02T13:02:37.340Z,16.10
2023-03-02T13:05:03.738Z,14.55
2023-03-02T13:07:30.255Z,15.57
2023-03-02T13:09:57.279Z,15.55
2023-03-02T13:12:23.769Z,14.93
2023-03-02T13:14:50.233Z,13.73
2023-03-02T13:17:16.609Z,15.32
2023-03-02T13:19:42.957Z,14.10
2023-03-02T13:22:09.385Z,13.20
2023-03-02T13:24:35.784Z,14.25
2023-03-02T13:27:02.119Z,14.18
2023-03-02T13:29:28.556Z,14.18
2023-03-02T13:31:54.972Z,13.98
2023-03-02T13:34:21.386Z,13.52
2023-03-02T13:36:47.818Z,12.38
2023-03-02T13:39:14.207Z,13.07
2023-03-02T13:41:40.581Z,12.82
2023-03-02T13:44:06.984Z,13.48
2023-03-02T13:46:33.695Z,12.05
2023-03-02T13:49:09.651Z,16.23
2023-03-02T13:51:36.999Z,15.07
2023-03-02T13:54:03.396Z,14.15
2023-03-02T13:56:33.113Z,17.40
2023-03-02T13:58:59.751Z,15.90
2023-03-02T14:01:26.140Z,15.10
2023-03-02T14:03:52.533Z,15.15
2023-03-02T14:06:18.961Z,14.93
2023-03-02T14:08:45.310Z,13.98
2023-03-02T14:11:11.646Z,14.68
2023-03-02T14:13:38.041Z,12.40
2023-03-02T14:16:04.438Z,14.25
2023-03-02T14:18:30.836Z,13.43
2023-03-02T14:20:57.258Z,13.05
2023-03-02T14:23:23.669Z,13.25
2023-03-02T14:25:50.122Z,13.30
2023-03-02T14:28:17.663Z,13.77
2023-03-02T14:30:44.894Z,13.35
2023-03-02T14:33:11.283Z,11.82
2023-03-02T14:35:37.772Z,12.88
2023-03-02T14:38:04.190Z,11.73
2023-03-02T14:40:30.586Z,12.05
2023-03-02T14:42:57.044Z,10.77
2023-03-02T14:45:23.433Z,11.25
2023-03-02T14:47:49.878Z,11.85
2023-03-02T14:50:16.311Z,10.93
2023-03-02T14:52:42.760Z,12.02
2023-03-02T14:55:09.235Z,13.15
2023-03-02T14:57:35.829Z,13.65
2023-03-02T15:00:02.463Z,14.38
2023-03-02T15:02:29.063Z,13.35
2023-03-02T15:04:56.422Z,15.30
2023-03-02T15:07:23.138Z,14.05
2023-03-02T15:09:49.573Z,15.10
2023-03-02T15:12:15.952Z,12.70
2023-03-02T15:14:42.257Z,14.32
2023-03-02T15:17:08.594Z,14.05
2023-03-02T15:19:35.009Z,14.30
2023-03-02T15:22:04.075Z,14.48
2023-03-02T15:24:33.063Z,13.15
2023-03-02T15:26:59.847Z,17.23
2023-03-02T15:29:26.181Z,16.60
2023-03-02T15:31:52.704Z,15.18
2023-03-02T15:34:19.178Z,15.63
2023-03-02T15:36:45.542Z,16.85
2023-03-02T15:39:12.012Z,15.90
2023-03-02T15:41:38.457Z,16.45
2023-03-02T15:44:04.796Z,17.15
2023-03-02T15:46:31.228Z,17.02
2023-03-02T15:48:57.674Z,19.58
2023-03-02T15:51:24.001Z,17.90
2023-03-02T15:53:50.319Z,19.25
2023-03-02T15:56:16.718Z,16.15
2023-03-02T15:58:43.043Z,17.35
2023-03-02T16:01:09.455Z,18.27
2023-03-02T16:03:35.857Z,16.80
2023-03-02T16:06:02.218Z,17.65
2023-03-02T16:08:28.534Z,18.05
2023-03-02T16:10:54.939Z,17.23
2023-03-02T16:13:21.439Z,19.58
2023-03-02T16:15:47.754Z,17.25
2023-03-02T16:18:14.149Z,17.90
2023-03-02T16:20:40.458Z,18.38
2023-03-02T16:23:06.757Z,17.30
2023-03-02T16:25:33.278Z,16.60
2023-03-02T16:27:59.593Z,17.45
2023-03-02T16:30:25.908Z,18.10
2023-03-02T16:32:52.400Z,18.30
2023-03-02T16:35:18.720Z,18.33
2023-03-02T16:37:45.117Z,17.00
2023-03-02T16:40:11.582Z,17.40
2023-03-02T16:42:37.884Z,16.90
2023-03-02T16:45:04.254Z,16.67
2023-03-02T16:47:30.620Z,17.15
2023-03-02T16:49:56.929Z,17.15
2023-03-02T16:52:23.230Z,17.60
2023-03-02T16:54:49.626Z,17.02
2023-03-02T16:57:15.980Z,17.38
2023-03-02T16:59:42.291Z,15.38
2023-03-02T17:02:08.660Z,15.77
2023-03-02T17:04:35.047Z,19.42
2023-03-02T17:07:01.662Z,16.05
2023-03-02T17:09:28.119Z,18.60
2023-03-02T17:11:54.445Z,16.33
2023-03-02T17:14:20.753Z,17.60
2023-03-02T17:16:47.121Z,16.73
2023-03-02T17:19:13.458Z,16.63
2023-03-02T17:21:39.802Z,17.42
2023-03-02T17:24:06.148Z,17.00
2023-03-02T17:26:32.567Z,16.42
2023-03-02T17:28:58.917Z,16.83
2023-03-02T17:31:25.315Z,16.35
2023-03-02T17:33:51.687Z,17.25
2023-03-02T17:36:17.995Z,16.88
2023-03-02T17:38:44.386Z,18.25
2023-03-02T17:41:10.744Z,15.98
2023-03-02T17:43:37.088Z,16.20
2023-03-02T17:46:03.530Z,17.73
2023-03-02T17:48:29.899Z,18.10
2023-03-02T17:50:56.220Z,19.15
2023-03-02T17:53:22.579Z,17.30
2023-03-02T17:55:48.895Z,19.88
2023-03-02T17:58:15.214Z,18.15
2023-03-02T18:00:41.583Z,17.45
2023-03-02T18:03:07.953Z,20.25
2023-03-02T18:05:34.294Z,19.13
2023-03-02T18:08:00.655Z,18.55
2023-03-02T18:10:26.963Z,20.17
2023-03-02T18:12:54.412Z,19.42
2023-03-02T18:15:20.852Z,23.67
2023-03-02T18:17:47.170Z,18.83
2023-03-02T18:20:13.504Z,20.55
2023-03-02T18:22:39.872Z,19.33
2023-03-02T18:25:06.197Z,20.42
2023-03-02T18:27:32.563Z,20.23
2023-03-02T18:29:59.128Z,21.23
2023-03-02T18:32:25.545Z,22.80
2023-03-02T18:34:51.913Z,20.38
2023-03-02T18:37:18.316Z,21.77
2023-03-02T18:39:44.636Z,24.35
2023-03-02T18:42:12.634Z,19.80
2023-03-02T18:44:39.181Z,21.25
2023-03-02T18:47:05.514Z,23.33
2023-03-02T18:49:31.840Z,24.70
2023-03-02T18:51:58.215Z,23.10
2023-03-02T18:54:24.551Z,22.00
2023-03-02T18:56:50.875Z,24.45
2023-03-02T18:59:17.259Z,24.83
2023-03-02T19:01:43.612Z,20.92
2023-03-02T19:04:10.007Z,21.08
2023-03-02T19:06:36.351Z,22.92
2023-03-02T19:09:02.668Z,22.27
2023-03-02T19:11:29.001Z,22.38
2023-03-02T19:13:55.387Z,23.05
2023-03-02T19:16:21.841Z,21.30
2023-03-02T19:18:48.318Z,22.13
2023-03-02T19:21:14.698Z,22.13
2023-03-02T19:23:41.054Z,20.10
2023-03-02T19:26:07.399Z,20.35
2023-03-02T19:28:33.756Z,23.20
2023-03-02T19:31:00.090Z,22.65
2023-03-02T19:33:26.426Z,23.27
2023-03-02T19:35:52.861Z,21.33
2023-03-02T19:38:19.301Z,23.83
2023-03-02T19:40:45.638Z,24.80
2023-03-02T19:43:12.006Z,23.60
2023-03-02T19:45:38.437Z,23.20
2023-03-02T19:48:05.940Z,23.55
2023-03-02T19:50:32.309Z,25.05
2023-03-02T19:52:58.647Z,23.15
2023-03-02T19:55:24.997Z,24.73
2023-03-02T19:57:51.379Z,23.35
2023-03-02T20:00:17.705Z,23.92
2023-03-02T20:02:44.023Z,23.75
2023-03-02T20:05:10.393Z,24.95
2023-03-02T20:07:36.700Z,26.52
2023-03-02T20:10:03.025Z,24.08
2023-03-02T20:12:29.408Z,24.60
2023-03-02T20:14:55.746Z,23.50
2023-03-02T20:17:22.044Z,24.92
2023-03-02T20:19:48.410Z,25.65
2023-03-02T20:22:14.718Z,25.80
2023-03-02T20:24:41.044Z,23.48
2023-03-02T20:27:07.426Z,26.17
2023-03-02T20:29:33.751Z,24.95
2023-03-02T20:32:00.227Z,22.58
2023-03-02T20:34:26.647Z,24.95
2023-03-02T20:36:52.970Z,26.00
2023-03-02T20:39:19.298Z,26.10
2023-03-02T20:41:45.654Z,25.80
2023-03-02T20:44:14.570Z,24.83
2023-03-02T20:46:41.135Z,26.00
2023-03-02T20:49:07.525Z,26.75
2023-03-02T20:51:33.883Z,25.83
2023-03-02T20:54:00.200Z,25.70
2023-03-02T20:56:26.574Z,26.38
2023-03-02T20:58:52.908Z,25.63
2023-03-02T21:01:19.268Z,27.52
2023-03-02T21:03:45.668Z,26.77
2023-03-02T21:06:11.982Z,25.42
2023-03-02T21:08:38.289Z,26.55
2023-03-02T21:11:04.735Z,26.50
2023-03-02T21:13:31.104Z,26.92
2023-03-02T21:15:57.466Z,27.15
2023-03-02T21:18:23.836Z,25.65
2023-03-02T21:20:50.173Z,28.10
2023-03-02T21:23:16.515Z,27.95
2023-03-02T21:25:42.958Z,26.98
2023-03-02T21:28:09.300Z,27.20
2023-03-02T21:30:35.718Z,27.65
2023-03-02T21:33:02.078Z,27.83
2023-03-02T21:35:28.408Z,27.88
2023-03-02T21:37:54.844Z,28.77
2023-03-02T21:40:21.222Z,28.42
2023-03-02T21:42:47.532Z,29.98
2023-03-02T21:45:13.880Z,26.90
2023-03-02T21:47:40.219Z,27.80
2023-03-02T21:50:06.543Z,27.55
2023-03-02T21:52:32.860Z,28.63
2023-03-02T21:54:59.235Z,29.98
2023-03-02T21:57:25.556Z,27.98
2023-03-02T21:59:51.896Z,28.95
2023-03-02T22:02:18.264Z,27.95
2023-03-02T22:04:44.588Z,29.58
2023-03-02T22:07:10.890Z,27.65
2023-03-02T22:09:37.284Z,30.50
2023-03-02T22:12:03.601Z,25.35
2023-03-02T22:14:29.949Z,30.02
2023-03-02T22:16:56.418Z,27.35
2023-03-02T22:19:22.810Z,28.38
2023-03-02T22:21:49.142Z,28.73
2023-03-02T22:24:15.489Z,27.85
2023-03-02T22:26:41.832Z,29.95
2023-03-02T22:29:08.151Z,27.77
2023-03-02T22:31:34.606Z,30.20
2023-03-02T22:34:00.920Z,28.27
2023-03-02T22:36:27.241Z,29.40
2023-03-02T22:38:53.606Z,30.65
2023-03-02T22:41:19.940Z,28.70
2023-03-02T22:43:46.262Z,28.92
2023-03-02T22:46:12.630Z,27.60
2023-03-02T22:48:38.969Z,30.15
2023-03-02T22:51:05.275Z,31.08
2023-03-02T22:53:31.645Z,31.02
2023-03-02T22:55:58.137Z,31.40
2023-03-02T22:58:24.565Z,32.58
2023-03-02T23:00:50.934Z,30.85
2023-03-02T23:03:17.632Z,30.33
2023-03-02T23:05:44.045Z,29.73
2023-03-02T23:08:10.429Z,31.42
2023-03-02T23:10:36.732Z,31.15
2023-03-02T23:13:03.285Z,32.55
2023-03-02T23:15:29.721Z,31.85
2023-03-02T23:17:56.049Z,32.78
2023-03-02T23:20:22.381Z,30.67
2023-03-02T23:22:48.732Z,30.05
2023-03-02T23:25:15.162Z,30.90
2023-03-02T23:27:41.552Z,31.58
2023-03-02T23:30:07.931Z,32.03
2023-03-02T23:32:34.331Z,32.83
2023-03-02T23:35:00.762Z,32.22
2023-03-02T23:37:27.168Z,31.63
2023-03-02T23:39:53.484Z,32.42
2023-03-02T23:42:19.784Z,32.35
2023-03-02T23:44:46.133Z,32.17
2023-03-02T23:47:12.530Z,32.70
2023-03-02T23:49:38.941Z,30.40
2023-03-02T23:52:05.349Z,33.05
2023-03-02T23:54:31.695Z,32.95
2023-03-02T23:56:58.023Z,31.52
2023-03-02T23:59:24.375Z,32.42
